Airport Name : Las Cruces Intl

Other Name : Las Cruces Intl

ICAO : KLRU

IATA : LRU

FAA : LRU

Latitude : 32.289417

Longitude : -106.921972

Country : United States

Local Date and Time : 20 Apr 2021 06:48

 

TAF (Terminal Aerodrome Forecast)

KLRU 201121Z 2012/2112 24005KT P6SM SKC FM202000 23013G20KT P6SM SKC FM210300 14011KT P6SM SKC

 

METAR (METeorological Aerodrome Report)

KLRU 201235Z AUTO 11005KT 10SM CLR 13/M01 A3003 RMK AO2 T01271015

KLRU 201215Z AUTO 11004KT 10SM CLR 10/M03 A3003 RMK AO2 T01031030

KLRU 201155Z AUTO 26005KT 10SM CLR 11/M03 A3001 RMK AO2 T01091027 10174 20109

KLRU 201135Z AUTO 25007KT 10SM CLR 12/M02 A3001 RMK AO2 T01201024

KLRU 201115Z AUTO 00000KT 10SM CLR 12/M02 A3001 RMK AO2 T01181020

KLRU 201055Z AUTO 24004KT 10SM CLR 14/M02 A3000 RMK AO2 T01401016

KLRU 201035Z AUTO 22005KT 10SM CLR 14/M02 A3000 RMK AO2 T01371018

KLRU 201015Z AUTO 21005KT 10SM CLR 14/M01 A3001 RMK AO2 T01441015

KLRU 200955Z AUTO 25004KT 10SM CLR 15/M02 A3001 RMK AO2 T01471016

KLRU 200935Z AUTO 17005KT 10SM CLR 14/M02 A3000 RMK AO2 T01421020

KLRU 200915Z AUTO 00000KT 10SM CLR 15/M02 A3000 RMK AO2 T01501018

KLRU 200855Z AUTO 00000KT 10SM CLR 15/M02 A3000 RMK AO2 T01461020

To Charter a Jet Click here.